Airfield :
LOGIN :

Register | Disclaimer

   EN    FR    IT 

 










Legend :    VFR   Marginal VFR   IFR   Intensive IFR   Very Intensive IFR
Visi :
Ceiling :
>= 8 km
>= 3000ft
5 to 8 km
1000 to 3000 ft
1500m to 5 km
500 to 1000 ft
800 to 1500m
200 to 500 ft
< 800m
< 200 ft
Symbols :   Thunderstorms  Fog  Heavy snow  Heavy precipitations  Wind > 20 kt
SIGMETs :     Misc.  Thunderstorms  Icing  Turbulence  Mountain Waves  Volcanic Ashes







- Airport Elevation : 300 ft
- IATA code : MLA


LMML - Malta Luqa

CURRENT METAR :
  • 191815Z 20017KT 9999 FEW024 21/16 Q1007 NOSIG

EXPIRED METARs :
  • 191745Z 20015KT 9999 FEW025 21/15 Q1007 NOSIG
  • 191715Z 21015KT 9999 FEW025 20/15 Q1007 NOSIG
  • 191645Z 21012KT 9999 FEW025 20/14 Q1007 NOSIG
  • 191615Z 21014KT 9999 FEW028 20/14 Q1007 NOSIG
  • 191545Z 20011KT 9999 FEW028 20/15 Q1007 NOSIG
  • 191515Z 20012KT 9999 FEW026 20/15 Q1007 NOSIG

TAF TAF LMML
Valid from the 19 at 18:00 until the 20 at 18:00 UTC


191700Z 1918/2018 19017KT 9999 FEW025
TEMPO 1918/2007 19017G27KT
PROB40 1922/2018 6000 TSRA BKN070CB
BECMG 2007/2010 25019G29KT
No reported NOTAMs for that airfield.



MET'MAP, your aeronautical weather chart ! - Copyright ORBIFLY December 2007 - Disclaimer

ORBIFLY MET'MAP TEAM :

Programming & Development : Alexandra Zaïnal
Concept & Development : Baudouin d'Aumeries
Co-Development & Prog : Marc-Olivier Méhu
Technical & hardware support : Manuel Goepfert

Contact : metmap@orbifly.com




SOURCES & CREDITS :

   NOAA